createdAt,value
2019-02-15T08:53:45.623Z,101990.66
2019-02-15T08:56:14.497Z,101985.50
2019-02-15T08:58:42.419Z,101982.70
2019-02-15T09:01:10.185Z,101997.52
2019-02-15T09:03:38.043Z,101986.67
2019-02-15T09:06:05.833Z,101989.08
2019-02-15T09:08:33.700Z,101990.38
2019-02-15T09:11:02.494Z,101985.23
2019-02-15T09:13:30.380Z,101994.12
2019-02-15T09:15:58.276Z,102000.64
2019-02-15T09:18:26.146Z,101998.91
2019-02-15T09:20:54.100Z,101999.53
2019-02-15T09:23:22.020Z,102002.37
2019-02-15T09:25:50.075Z,102003.06
2019-02-15T09:28:26.161Z,102008.53
2019-02-15T09:30:54.631Z,102001.20
2019-02-15T09:33:22.617Z,102010.64
2019-02-15T09:35:50.918Z,102004.45
2019-02-15T09:38:18.941Z,102002.70
2019-02-15T09:40:47.027Z,102003.77
2019-02-15T09:43:15.095Z,102005.61
2019-02-15T09:45:43.078Z,102001.88
2019-02-15T09:48:11.141Z,102007.81
2019-02-15T09:50:38.998Z,102004.23
2019-02-15T09:53:06.852Z,102006.51
2019-02-15T09:55:34.657Z,102002.00
2019-02-15T09:58:02.907Z,102005.14
2019-02-15T10:00:30.782Z,101999.30
2019-02-15T10:02:58.719Z,101996.36
2019-02-15T10:05:26.590Z,101997.80
2019-02-15T10:07:54.540Z,101994.66
2019-02-15T10:10:22.530Z,101994.97
2019-02-15T10:12:50.345Z,101982.78
2019-02-15T10:15:18.154Z,101984.78
2019-02-15T10:17:46.070Z,101977.88
2019-02-15T10:20:13.958Z,101970.62
2019-02-15T10:22:41.892Z,101970.99
2019-02-15T10:25:12.733Z,101971.94
2019-02-15T10:27:40.755Z,101975.89
2019-02-15T10:30:08.982Z,101972.47
2019-02-15T10:32:37.138Z,101971.70
2019-02-15T10:35:06.307Z,101961.97
2019-02-15T10:37:34.087Z,101968.08
2019-02-15T10:40:02.038Z,101963.34
2019-02-15T10:42:29.824Z,101961.91
2019-02-15T10:44:57.623Z,101954.89
2019-02-15T10:47:25.621Z,101953.25
2019-02-15T10:49:53.470Z,101954.38
2019-02-15T10:52:22.033Z,101962.00
2019-02-15T10:54:49.963Z,101953.56
2019-02-15T10:57:18.523Z,101953.03
2019-02-15T10:59:46.469Z,101947.86
2019-02-15T11:02:14.221Z,101950.05
2019-02-15T11:04:42.072Z,101944.61
2019-02-15T11:07:09.855Z,101940.47
2019-02-15T11:09:37.689Z,101943.95
2019-02-15T11:12:05.730Z,101949.85
2019-02-15T11:14:33.546Z,101947.30
2019-02-15T11:17:03.109Z,101949.88
2019-02-15T11:19:31.082Z,101946.21
2019-02-15T11:21:59.046Z,101946.05
2019-02-15T11:24:26.974Z,101950.84
2019-02-15T11:26:54.870Z,101942.88
2019-02-15T11:29:22.757Z,101934.38
2019-02-15T11:31:50.574Z,101931.80
2019-02-15T11:34:18.494Z,101941.63
2019-02-15T11:36:46.285Z,101929.37
2019-02-15T11:39:15.009Z,101925.11
2019-02-15T11:41:43.188Z,101921.75
2019-02-15T11:44:11.109Z,101918.06
2019-02-15T11:46:38.868Z,101917.72
2019-02-15T11:49:06.903Z,101918.11
2019-02-15T11:51:35.385Z,101908.45
2019-02-15T11:54:03.473Z,101914.53
2019-02-15T11:56:31.337Z,101914.53
2019-02-15T11:58:59.187Z,101900.76
2019-02-15T12:01:27.054Z,101899.80
2019-02-15T12:03:54.995Z,101887.09
2019-02-15T12:06:23.587Z,101887.09
2019-02-15T12:08:51.548Z,101889.83
2019-02-15T12:11:19.602Z,101889.83
2019-02-15T12:13:47.446Z,101892.82
2019-02-15T12:16:15.213Z,101882.67
2019-02-15T12:18:43.043Z,101890.38
2019-02-15T12:21:10.982Z,101890.38
2019-02-15T12:23:38.929Z,101882.46
2019-02-15T12:26:06.777Z,101882.55
2019-02-15T12:28:34.559Z,101882.55
2019-02-15T12:31:02.408Z,101888.70
2019-02-15T12:33:30.271Z,101872.21
2019-02-15T12:35:58.095Z,101869.61
2019-02-15T12:38:26.000Z,101863.53
2019-02-15T12:40:54.020Z,101863.53
2019-02-15T12:43:21.893Z,101865.73
2019-02-15T12:45:49.725Z,101856.41
2019-02-15T12:48:17.523Z,101861.42
2019-02-15T12:50:45.556Z,101861.23
2019-02-15T12:53:13.423Z,101861.06
2019-02-15T12:55:41.753Z,101857.16
2019-02-15T12:58:09.502Z,101854.67
2019-02-15T13:00:40.960Z,101849.16
2019-02-15T13:03:08.963Z,101853.61
2019-02-15T13:05:36.913Z,101849.31
2019-02-15T13:08:04.899Z,101848.79
2019-02-15T13:10:35.282Z,101847.69
2019-02-15T13:13:03.205Z,101839.97
2019-02-15T13:15:31.027Z,101839.43
2019-02-15T13:17:59.127Z,101841.36
2019-02-15T13:20:27.199Z,101835.41
2019-02-15T13:22:54.974Z,101833.92
2019-02-15T13:25:23.027Z,101832.23
2019-02-15T13:27:50.924Z,101829.29
2019-02-15T13:30:18.744Z,101831.05
2019-02-15T13:32:46.552Z,101830.22
2019-02-15T13:35:15.643Z,101825.79
2019-02-15T13:37:43.410Z,101822.99
2019-02-15T13:40:11.332Z,101814.98
2019-02-15T13:42:39.218Z,101823.06
2019-02-15T13:45:08.385Z,101822.48
2019-02-15T13:47:36.256Z,101825.03
2019-02-15T13:50:04.435Z,101820.11
2019-02-15T13:52:32.328Z,101819.27
2019-02-15T13:55:00.307Z,101813.91
2019-02-15T13:57:28.244Z,101816.52
2019-02-15T13:59:56.096Z,101820.37
2019-02-15T14:02:24.076Z,101816.58
2019-02-15T14:04:53.101Z,101813.34
2019-02-15T14:07:20.875Z,101809.12
2019-02-15T14:09:49.036Z,101805.52
2019-02-15T14:12:17.005Z,101805.81
2019-02-15T14:14:44.903Z,101804.53
2019-02-15T14:17:12.833Z,101798.97
2019-02-15T14:19:40.819Z,101802.98
2019-02-15T14:22:08.980Z,101798.97
2019-02-15T14:24:37.635Z,101793.05
2019-02-15T14:27:05.565Z,101793.33
2019-02-15T14:29:33.503Z,101792.78
2019-02-15T14:32:01.476Z,101792.14
2019-02-15T14:34:29.390Z,101789.47
2019-02-15T14:36:57.208Z,101790.00
2019-02-15T14:39:25.073Z,101789.70
2019-02-15T14:41:52.914Z,101786.74
2019-02-15T14:44:20.776Z,101784.93
2019-02-15T14:46:48.691Z,101769.77
2019-02-15T14:49:16.473Z,101774.20
2019-02-15T14:51:44.336Z,101773.55
2019-02-15T14:54:12.291Z,101770.80
2019-02-15T14:56:40.239Z,101765.73
2019-02-15T14:59:08.084Z,101765.39
2019-02-15T15:01:36.036Z,101760.91
2019-02-15T15:04:03.788Z,101758.07
2019-02-15T15:06:31.613Z,101756.90
2019-02-15T15:08:59.492Z,101754.70
2019-02-15T15:11:28.061Z,101750.00
2019-02-15T15:13:55.857Z,101764.22
2019-02-15T15:16:23.670Z,101760.23
2019-02-15T15:18:51.453Z,101756.93
2019-02-15T15:21:19.371Z,101754.98
2019-02-15T15:23:47.139Z,101757.23
2019-02-15T15:26:15.062Z,101746.55
2019-02-15T15:28:42.957Z,101755.39
2019-02-15T15:31:11.239Z,101748.20
2019-02-15T15:33:39.358Z,101750.14
2019-02-15T15:36:12.730Z,101746.14
2019-02-15T15:38:40.628Z,101747.44
2019-02-15T15:41:08.686Z,101741.72
2019-02-15T15:43:36.483Z,101741.72
2019-02-15T15:46:04.409Z,101735.16
2019-02-15T15:48:32.895Z,101737.66
2019-02-15T15:51:00.738Z,101727.97
2019-02-15T15:53:28.620Z,101728.54
2019-02-15T15:55:56.432Z,101726.05
2019-02-15T15:58:24.220Z,101730.77
2019-02-15T16:00:52.216Z,101732.14
2019-02-15T16:03:20.146Z,101735.95
2019-02-15T16:05:47.939Z,101738.28
2019-02-15T16:08:16.407Z,101731.94
2019-02-15T16:10:44.965Z,101742.77
2019-02-15T16:13:13.143Z,101744.00
2019-02-15T16:15:41.015Z,101741.26
2019-02-15T16:18:08.886Z,101743.24
2019-02-15T16:20:36.757Z,101747.14
2019-02-15T16:23:04.705Z,101742.95
2019-02-15T16:25:32.680Z,101740.94
2019-02-15T16:28:01.808Z,101749.17
2019-02-15T16:30:30.436Z,101752.55
2019-02-15T16:32:58.292Z,101750.07
2019-02-15T16:35:26.092Z,101753.84
2019-02-15T16:37:56.890Z,101756.01
2019-02-15T16:40:25.642Z,101752.99
2019-02-15T16:42:54.705Z,101751.08
2019-02-15T16:45:23.795Z,101751.08
2019-02-15T16:47:51.717Z,101754.47
2019-02-15T16:50:19.640Z,101754.11
2019-02-15T16:52:48.722Z,101757.72
2019-02-15T16:55:16.495Z,101759.53
2019-02-15T16:57:44.429Z,101764.12
2019-02-15T17:00:12.664Z,101763.64
2019-02-15T17:02:40.481Z,101761.93
2019-02-15T17:05:08.561Z,101765.06
2019-02-15T17:07:36.592Z,101763.61
2019-02-15T17:10:04.993Z,101759.64
2019-02-15T17:12:33.178Z,101758.02
2019-02-15T17:15:00.945Z,101758.02
2019-02-15T17:17:28.808Z,101758.85
2019-02-15T17:19:57.219Z,101763.54
2019-02-15T17:22:25.232Z,101750.24
2019-02-15T17:24:53.109Z,101750.24
2019-02-15T17:27:21.179Z,101758.93
2019-02-15T17:29:49.766Z,101766.48
2019-02-15T17:32:17.626Z,101761.15
2019-02-15T17:34:45.549Z,101756.54
2019-02-15T17:37:13.427Z,101757.23
2019-02-15T17:39:41.333Z,101757.23
2019-02-15T17:42:09.207Z,101768.02
2019-02-15T17:44:37.110Z,101768.02
2019-02-15T17:47:05.079Z,101764.52
2019-02-15T17:49:32.848Z,101764.52
2019-02-15T17:52:00.635Z,101771.53
2019-02-15T17:54:28.471Z,101771.75
2019-02-15T17:57:03.366Z,101771.75
2019-02-15T17:59:34.778Z,101762.31
2019-02-15T18:02:03.191Z,101764.00
2019-02-15T18:04:31.140Z,101764.00
2019-02-15T18:06:59.005Z,101755.32
2019-02-15T18:09:26.905Z,101751.86
2019-02-15T18:11:59.942Z,101756.26
2019-02-15T18:14:28.366Z,101756.26
2019-02-15T18:16:56.279Z,101755.06
2019-02-15T18:19:24.102Z,101755.06
2019-02-15T18:21:51.940Z,101766.23
2019-02-15T18:24:19.905Z,101766.63
2019-02-15T18:26:48.098Z,101765.73
2019-02-15T18:29:16.466Z,101774.59
2019-02-15T18:31:44.346Z,101774.59
2019-02-15T18:34:12.172Z,101773.57
2019-02-15T18:36:40.075Z,101776.39
2019-02-15T18:39:08.896Z,101776.39
2019-02-15T18:41:37.560Z,101768.95
2019-02-15T18:44:05.574Z,101768.95
2019-02-15T18:46:33.515Z,101772.87
2019-02-15T18:49:01.628Z,101772.87
2019-02-15T18:51:29.542Z,101760.86
2019-02-15T18:53:57.499Z,101760.86
2019-02-15T18:56:25.294Z,101769.83
2019-02-15T18:58:53.266Z,101770.61
2019-02-15T19:01:21.181Z,101770.19
2019-02-15T19:03:49.168Z,101771.83
2019-02-15T19:06:19.084Z,101771.83
2019-02-15T19:08:46.938Z,101775.42
2019-02-15T19:11:14.931Z,101774.95
2019-02-15T19:13:43.124Z,101773.58
2019-02-15T19:16:11.394Z,101768.70
2019-02-15T19:18:39.996Z,101768.33
2019-02-15T19:21:08.162Z,101767.33
2019-02-15T19:23:36.799Z,101766.36
2019-02-15T19:26:04.748Z,101764.13
2019-02-15T19:28:32.786Z,101764.13
2019-02-15T19:31:02.619Z,101756.08
2019-02-15T19:33:30.586Z,101747.31
2019-02-15T19:35:58.519Z,101766.60
2019-02-15T19:38:26.526Z,101767.62
2019-02-15T19:40:54.459Z,101763.91
2019-02-15T19:43:22.387Z,101763.76
2019-02-15T19:45:52.125Z,101769.64
2019-02-15T19:48:20.050Z,101767.28
2019-02-15T19:50:48.629Z,101765.42
2019-02-15T19:53:16.603Z,101764.50
2019-02-15T19:55:44.379Z,101759.35
2019-02-15T19:58:12.256Z,101765.77
2019-02-15T20:00:40.122Z,101759.65
2019-02-15T20:03:07.937Z,101759.20
2019-02-15T20:05:35.791Z,101763.56
2019-02-15T20:08:04.214Z,101758.09
2019-02-15T20:10:32.307Z,101769.23
2019-02-15T20:13:00.985Z,101769.80
2019-02-15T20:15:29.105Z,101762.07
2019-02-15T20:17:57.331Z,101761.78
2019-02-15T20:20:25.329Z,101755.83
2019-02-15T20:22:53.123Z,101762.61
2019-02-15T20:25:22.420Z,101763.75
2019-02-15T20:27:51.254Z,101759.61
2019-02-15T20:30:19.318Z,101748.11
2019-02-15T20:32:47.328Z,101752.27
2019-02-15T20:35:17.772Z,101751.13
2019-02-15T20:37:45.797Z,101745.41
2019-02-15T20:40:14.748Z,101751.70
2019-02-15T20:42:42.587Z,101758.83
2019-02-15T20:45:15.460Z,101752.23
2019-02-15T20:47:43.340Z,101751.11
2019-02-15T20:50:16.856Z,101762.22
2019-02-15T20:52:44.801Z,101755.36
2019-02-15T20:55:13.827Z,101758.38
2019-02-15T20:57:41.852Z,101751.66
2019-02-15T21:00:14.231Z,101748.00
2019-02-15T21:02:42.422Z,101750.34
2019-02-15T21:05:11.163Z,101750.07
2019-02-15T21:07:39.055Z,101749.02
2019-02-15T21:10:09.217Z,101746.19
2019-02-15T21:12:39.450Z,101744.78
2019-02-15T21:15:07.328Z,101740.52
2019-02-15T21:17:35.250Z,101739.02
2019-02-15T21:20:07.945Z,101737.02
2019-02-15T21:22:33.503Z,101729.21
2019-02-15T21:25:01.511Z,101727.88
2019-02-15T21:27:29.319Z,101730.95
2019-02-15T21:29:57.868Z,101722.02
2019-02-15T21:32:25.785Z,101728.03
2019-02-15T21:34:53.810Z,101723.50
2019-02-15T21:37:21.830Z,101728.39
2019-02-15T21:39:50.329Z,101732.03
2019-02-15T21:42:18.251Z,101726.29
2019-02-15T21:44:46.229Z,101731.15
2019-02-15T21:47:14.005Z,101730.74
2019-02-15T21:49:53.986Z,101729.95
2019-02-15T21:52:21.996Z,101727.95
2019-02-15T21:54:50.677Z,101720.40
2019-02-15T21:57:18.701Z,101721.99
2019-02-15T21:59:46.545Z,101725.18
2019-02-15T22:02:14.531Z,101725.97
2019-02-15T22:04:42.770Z,101725.21
2019-02-15T22:07:10.548Z,101732.24
2019-02-15T22:09:38.442Z,101724.06
2019-02-15T22:12:06.398Z,101727.16
2019-02-15T22:14:35.195Z,101727.70
2019-02-15T22:17:03.774Z,101726.73
2019-02-15T22:19:32.204Z,101729.53
2019-02-15T22:22:00.174Z,101724.98
2019-02-15T22:24:27.975Z,101728.17
2019-02-15T22:26:56.059Z,101725.33
2019-02-15T22:29:23.848Z,101721.55
2019-02-15T22:31:53.129Z,101724.11
2019-02-15T22:34:20.950Z,101726.26
2019-02-15T22:36:48.833Z,101722.80
2019-02-15T22:39:16.632Z,101723.52
2019-02-15T22:41:44.505Z,101715.03
2019-02-15T22:44:12.261Z,101713.67
2019-02-15T22:46:40.873Z,101706.95
2019-02-15T22:49:08.742Z,101707.28
2019-02-15T22:51:39.484Z,101706.84
2019-02-15T22:54:07.427Z,101706.62
2019-02-15T22:56:35.384Z,101707.17
2019-02-15T22:59:03.431Z,101711.28
2019-02-15T23:01:32.365Z,101706.02
2019-02-15T23:04:00.250Z,101708.59
2019-02-15T23:06:28.479Z,101710.73
2019-02-15T23:08:56.427Z,101709.58
2019-02-15T23:11:24.553Z,101711.06
2019-02-15T23:13:52.428Z,101712.70
2019-02-15T23:16:20.344Z,101716.48
2019-02-15T23:18:48.350Z,101709.69
2019-02-15T23:21:16.213Z,101717.28
2019-02-15T23:23:43.998Z,101720.20
2019-02-15T23:26:11.914Z,101719.20
2019-02-15T23:28:39.717Z,101714.27
2019-02-15T23:31:07.595Z,101707.54
2019-02-15T23:33:36.122Z,101712.27
2019-02-15T23:36:04.001Z,101719.44
2019-02-15T23:38:31.900Z,101713.67
2019-02-15T23:40:59.786Z,101713.06
2019-02-15T23:43:27.658Z,101709.27
2019-02-15T23:45:55.581Z,101718.08
2019-02-15T23:48:23.455Z,101712.05
2019-02-15T23:50:54.841Z,101712.98
2019-02-15T23:53:32.322Z,101717.61
2019-02-15T23:56:00.172Z,101724.39
2019-02-15T23:58:28.129Z,101719.38
